sensor_id;sensor_type;location;lat;lon;timestamp;P1;P2;P0
23240;PMS7003;11789;53.482;9.862;2022-10-18T00:01:40;17.00;15.00;10.00
23240;PMS7003;11789;53.482;9.862;2022-10-18T00:04:06;19.25;15.50;10.75
23240;PMS7003;11789;53.482;9.862;2022-10-18T00:06:31;20.00;18.25;10.50
23240;PMS7003;11789;53.482;9.862;2022-10-18T00:08:57;17.00;14.25;8.50
23240;PMS7003;11789;53.482;9.862;2022-10-18T00:11:22;18.00;15.25;10.00
23240;PMS7003;11789;53.482;9.862;2022-10-18T00:13:48;12.75;12.75;9.00
23240;PMS7003;11789;53.482;9.862;2022-10-18T00:16:14;19.50;18.00;12.00
23240;PMS7003;11789;53.482;9.862;2022-10-18T00:18:40;14.25;14.25;9.75
23240;PMS7003;11789;53.482;9.862;2022-10-18T00:21:11;23.00;17.25;10.25
23240;PMS7003;11789;53.482;9.862;2022-10-18T00:23:39;20.00;17.75;12.00
23240;PMS7003;11789;53.482;9.862;2022-10-18T00:26:06;19.75;15.25;10.00
23240;PMS7003;11789;53.482;9.862;2022-10-18T00:28:36;16.00;13.75;8.00
23240;PMS7003;11789;53.482;9.862;2022-10-18T00:33:42;18.00;18.00;12.25
23240;PMS7003;11789;53.482;9.862;2022-10-18T00:36:09;19.00;19.00;12.75
23240;PMS7003;11789;53.482;9.862;2022-10-18T00:38:36;18.50;17.00;12.25
23240;PMS7003;11789;53.482;9.862;2022-10-18T00:41:02;26.25;22.25;12.50
23240;PMS7003;11789;53.482;9.862;2022-10-18T00:43:29;19.75;16.75;11.75
23240;PMS7003;11789;53.482;9.862;2022-10-18T00:45:55;25.50;21.75;11.50
23240;PMS7003;11789;53.482;9.862;2022-10-18T00:48:20;23.25;20.75;12.50
23240;PMS7003;11789;53.482;9.862;2022-10-18T00:50:47;26.50;26.50;13.50
23240;PMS7003;11789;53.482;9.862;2022-10-18T00:53:14;20.75;19.00;10.00
23240;PMS7003;11789;53.482;9.862;2022-10-18T00:55:42;24.50;19.50;12.75
23240;PMS7003;11789;53.482;9.862;2022-10-18T00:58:08;25.25;23.25;13.75
23240;PMS7003;11789;53.482;9.862;2022-10-18T01:00:36;18.00;18.00;10.00
23240;PMS7003;11789;53.482;9.862;2022-10-18T01:03:04;27.50;20.25;12.25
23240;PMS7003;11789;53.482;9.862;2022-10-18T01:05:30;24.75;20.00;13.00
23240;PMS7003;11789;53.482;9.862;2022-10-18T01:08:00;25.75;24.25;14.75
23240;PMS7003;11789;53.482;9.862;2022-10-18T01:10:53;21.50;21.25;14.75
23240;PMS7003;11789;53.482;9.862;2022-10-18T01:18:58;22.50;19.25;12.00
23240;PMS7003;11789;53.482;9.862;2022-10-18T01:21:31;29.00;23.75;15.00
23240;PMS7003;11789;53.482;9.862;2022-10-18T01:32:33;25.00;21.75;15.75
23240;PMS7003;11789;53.482;9.862;2022-10-18T01:35:04;22.25;22.25;13.25
23240;PMS7003;11789;53.482;9.862;2022-10-18T01:37:35;26.25;23.75;15.25
23240;PMS7003;11789;53.482;9.862;2022-10-18T01:40:03;25.50;22.50;13.50
23240;PMS7003;11789;53.482;9.862;2022-10-18T01:42:31;23.50;22.75;14.50
23240;PMS7003;11789;53.482;9.862;2022-10-18T01:44:57;29.00;23.00;13.50
23240;PMS7003;11789;53.482;9.862;2022-10-18T01:47:25;25.25;22.75;15.25
23240;PMS7003;11789;53.482;9.862;2022-10-18T01:49:58;25.00;23.50;13.50
23240;PMS7003;11789;53.482;9.862;2022-10-18T01:52:24;30.75;24.75;16.50
23240;PMS7003;11789;53.482;9.862;2022-10-18T01:54:50;26.75;23.00;15.50
23240;PMS7003;11789;53.482;9.862;2022-10-18T01:57:35;26.50;23.50;15.25
23240;PMS7003;11789;53.482;9.862;2022-10-18T02:02:55;34.25;27.00;15.50
23240;PMS7003;11789;53.482;9.862;2022-10-18T02:06:17;29.25;25.50;16.00
23240;PMS7003;11789;53.482;9.862;2022-10-18T02:08:48;28.00;26.00;17.50
23240;PMS7003;11789;53.482;9.862;2022-10-18T02:11:23;26.50;24.75;15.75
23240;PMS7003;11789;53.482;9.862;2022-10-18T02:13:59;37.00;29.75;15.50
23240;PMS7003;11789;53.482;9.862;2022-10-18T02:16:33;26.75;26.00;15.50
23240;PMS7003;11789;53.482;9.862;2022-10-18T02:19:11;25.50;22.25;15.00
23240;PMS7003;11789;53.482;9.862;2022-10-18T02:21:42;28.50;28.50;16.25
23240;PMS7003;11789;53.482;9.862;2022-10-18T02:24:10;28.75;28.25;17.50
23240;PMS7003;11789;53.482;9.862;2022-10-18T02:26:38;31.00;27.75;16.50
23240;PMS7003;11789;53.482;9.862;2022-10-18T02:29:03;30.50;28.50;16.25
23240;PMS7003;11789;53.482;9.862;2022-10-18T02:31:35;28.25;28.25;17.25
23240;PMS7003;11789;53.482;9.862;2022-10-18T02:34:28;24.25;21.50;16.00
23240;PMS7003;11789;53.482;9.862;2022-10-18T02:36:59;24.75;20.25;13.50
23240;PMS7003;11789;53.482;9.862;2022-10-18T02:39:28;30.00;27.25;18.00
23240;PMS7003;11789;53.482;9.862;2022-10-18T02:41:56;31.25;29.75;16.25
23240;PMS7003;11789;53.482;9.862;2022-10-18T02:44:23;26.00;24.25;14.50
23240;PMS7003;11789;53.482;9.862;2022-10-18T02:46:49;31.00;29.00;16.00
23240;PMS7003;11789;53.482;9.862;2022-10-18T02:49:15;32.25;27.75;16.25
23240;PMS7003;11789;53.482;9.862;2022-10-18T02:51:40;31.25;29.25;16.50
23240;PMS7003;11789;53.482;9.862;2022-10-18T02:54:05;29.00;24.25;15.75
23240;PMS7003;11789;53.482;9.862;2022-10-18T02:56:32;31.25;27.25;16.75
23240;PMS7003;11789;53.482;9.862;2022-10-18T02:58:58;24.50;24.50;16.00
23240;PMS7003;11789;53.482;9.862;2022-10-18T03:01:23;25.50;23.50;16.00
23240;PMS7003;11789;53.482;9.862;2022-10-18T03:03:49;25.25;25.25;15.00
23240;PMS7003;11789;53.482;9.862;2022-10-18T03:06:14;26.50;26.50;15.50
23240;PMS7003;11789;53.482;9.862;2022-10-18T03:08:40;26.00;23.25;14.75
23240;PMS7003;11789;53.482;9.862;2022-10-18T03:11:05;22.75;22.75;15.25
23240;PMS7003;11789;53.482;9.862;2022-10-18T03:13:31;27.50;24.50;15.25
23240;PMS7003;11789;53.482;9.862;2022-10-18T03:15:58;31.00;24.25;14.25
23240;PMS7003;11789;53.482;9.862;2022-10-18T03:18:24;30.00;27.50;15.25
23240;PMS7003;11789;53.482;9.862;2022-10-18T03:20:49;25.50;24.00;15.75
23240;PMS7003;11789;53.482;9.862;2022-10-18T03:23:14;29.00;28.25;18.75
23240;PMS7003;11789;53.482;9.862;2022-10-18T03:25:40;25.75;25.50;16.50
23240;PMS7003;11789;53.482;9.862;2022-10-18T03:28:05;27.25;23.75;16.00
23240;PMS7003;11789;53.482;9.862;2022-10-18T03:30:31;24.00;23.75;17.00
23240;PMS7003;11789;53.482;9.862;2022-10-18T03:32:57;30.00;27.25;16.50
23240;PMS7003;11789;53.482;9.862;2022-10-18T03:35:22;24.75;24.75;15.50
23240;PMS7003;11789;53.482;9.862;2022-10-18T03:37:48;23.50;22.75;14.00
23240;PMS7003;11789;53.482;9.862;2022-10-18T03:40:13;22.25;15.25;12.25
23240;PMS7003;11789;53.482;9.862;2022-10-18T03:42:38;23.00;21.25;13.50
23240;PMS7003;11789;53.482;9.862;2022-10-18T03:45:04;21.50;19.25;14.25
23240;PMS7003;11789;53.482;9.862;2022-10-18T03:47:30;26.25;25.00;15.50
23240;PMS7003;11789;53.482;9.862;2022-10-18T03:49:55;25.75;25.25;16.00
23240;PMS7003;11789;53.482;9.862;2022-10-18T03:52:21;25.00;24.75;15.50
23240;PMS7003;11789;53.482;9.862;2022-10-18T03:54:46;33.75;30.75;17.50
23240;PMS7003;11789;53.482;9.862;2022-10-18T03:57:14;26.75;25.50;15.50
23240;PMS7003;11789;53.482;9.862;2022-10-18T03:59:40;31.75;24.25;15.25
23240;PMS7003;11789;53.482;9.862;2022-10-18T04:02:06;30.75;28.25;16.50
23240;PMS7003;11789;53.482;9.862;2022-10-18T04:04:31;24.25;24.25;15.50
23240;PMS7003;11789;53.482;9.862;2022-10-18T04:06:56;34.75;28.50;17.25
23240;PMS7003;11789;53.482;9.862;2022-10-18T04:09:22;20.50;19.50;10.25
23240;PMS7003;11789;53.482;9.862;2022-10-18T04:11:50;32.25;27.50;15.75
23240;PMS7003;11789;53.482;9.862;2022-10-18T04:14:18;26.00;25.00;16.25
23240;PMS7003;11789;53.482;9.862;2022-10-18T04:16:48;28.50;26.75;17.25
23240;PMS7003;11789;53.482;9.862;2022-10-18T04:19:13;33.50;29.75;19.25
23240;PMS7003;11789;53.482;9.862;2022-10-18T04:21:39;35.50;28.25;16.25
23240;PMS7003;11789;53.482;9.862;2022-10-18T04:24:04;32.75;31.00;17.25
23240;PMS7003;11789;53.482;9.862;2022-10-18T04:26:30;35.25;32.25;18.75
23240;PMS7003;11789;53.482;9.862;2022-10-18T04:28:57;34.25;31.00;19.00
23240;PMS7003;11789;53.482;9.862;2022-10-18T04:31:23;37.25;30.00;16.25
23240;PMS7003;11789;53.482;9.862;2022-10-18T04:33:48;38.00;33.75;19.00
23240;PMS7003;11789;53.482;9.862;2022-10-18T04:36:14;33.75;32.50;18.75
23240;PMS7003;11789;53.482;9.862;2022-10-18T04:38:39;33.75;31.25;17.25
23240;PMS7003;11789;53.482;9.862;2022-10-18T04:41:04;32.00;30.75;18.75
23240;PMS7003;11789;53.482;9.862;2022-10-18T04:43:30;33.00;30.25;16.75
23240;PMS7003;11789;53.482;9.862;2022-10-18T04:45:55;33.00;30.25;15.25
23240;PMS7003;11789;53.482;9.862;2022-10-18T04:48:21;29.25;27.75;17.25
23240;PMS7003;11789;53.482;9.862;2022-10-18T04:50:47;38.25;33.50;18.75
23240;PMS7003;11789;53.482;9.862;2022-10-18T04:53:20;31.00;28.50;17.75
23240;PMS7003;11789;53.482;9.862;2022-10-18T04:55:48;46.25;37.00;21.25
23240;PMS7003;11789;53.482;9.862;2022-10-18T04:58:15;49.75;38.25;20.50
23240;PMS7003;11789;53.482;9.862;2022-10-18T05:00:41;43.00;36.75;19.00
23240;PMS7003;11789;53.482;9.862;2022-10-18T05:03:07;38.75;36.00;19.75
23240;PMS7003;11789;53.482;9.862;2022-10-18T05:05:34;32.25;30.50;19.50
23240;PMS7003;11789;53.482;9.862;2022-10-18T05:07:59;37.25;33.25;19.00
23240;PMS7003;11789;53.482;9.862;2022-10-18T05:10:25;45.25;36.00;21.75
23240;PMS7003;11789;53.482;9.862;2022-10-18T05:12:50;45.75;37.25;20.75
23240;PMS7003;11789;53.482;9.862;2022-10-18T05:15:16;44.00;37.25;22.25
23240;PMS7003;11789;53.482;9.862;2022-10-18T05:17:41;40.50;35.00;20.00
23240;PMS7003;11789;53.482;9.862;2022-10-18T05:20:07;44.50;37.25;22.50
23240;PMS7003;11789;53.482;9.862;2022-10-18T05:22:32;44.50;36.75;22.50
23240;PMS7003;11789;53.482;9.862;2022-10-18T05:24:58;45.50;39.00;21.50
23240;PMS7003;11789;53.482;9.862;2022-10-18T05:27:23;37.50;35.50;20.50
23240;PMS7003;11789;53.482;9.862;2022-10-18T05:29:49;38.25;35.25;22.00
23240;PMS7003;11789;53.482;9.862;2022-10-18T05:32:14;37.00;30.75;18.25
23240;PMS7003;11789;53.482;9.862;2022-10-18T05:34:39;52.00;40.50;23.25
23240;PMS7003;11789;53.482;9.862;2022-10-18T05:37:05;46.00;38.00;22.25
23240;PMS7003;11789;53.482;9.862;2022-10-18T05:39:31;40.75;35.00;22.25
23240;PMS7003;11789;53.482;9.862;2022-10-18T05:41:56;41.25;37.25;22.25
23240;PMS7003;11789;53.482;9.862;2022-10-18T05:44:22;41.00;36.00;19.75
23240;PMS7003;11789;53.482;9.862;2022-10-18T05:46:47;38.50;34.00;18.25
23240;PMS7003;11789;53.482;9.862;2022-10-18T05:49:13;35.75;33.25;19.50
23240;PMS7003;11789;53.482;9.862;2022-10-18T05:51:38;37.00;33.75;18.50
23240;PMS7003;11789;53.482;9.862;2022-10-18T05:54:04;42.25;33.75;19.50
23240;PMS7003;11789;53.482;9.862;2022-10-18T05:56:29;37.75;29.00;15.75
23240;PMS7003;11789;53.482;9.862;2022-10-18T05:58:55;40.00;34.50;19.25
23240;PMS7003;11789;53.482;9.862;2022-10-18T06:04:16;36.00;33.50;20.00
23240;PMS7003;11789;53.482;9.862;2022-10-18T06:06:42;35.00;32.00;21.00
23240;PMS7003;11789;53.482;9.862;2022-10-18T06:09:08;37.00;32.75;19.50
23240;PMS7003;11789;53.482;9.862;2022-10-18T06:11:34;33.00;29.75;17.75
23240;PMS7003;11789;53.482;9.862;2022-10-18T06:14:01;34.50;29.75;17.75
23240;PMS7003;11789;53.482;9.862;2022-10-18T06:16:26;34.75;26.50;13.75
23240;PMS7003;11789;53.482;9.862;2022-10-18T06:18:53;27.50;24.50;15.25
23240;PMS7003;11789;53.482;9.862;2022-10-18T06:21:20;27.50;26.00;16.00
23240;PMS7003;11789;53.482;9.862;2022-10-18T06:23:51;31.50;24.75;15.25
23240;PMS7003;11789;53.482;9.862;2022-10-18T06:26:19;29.75;26.75;15.75
23240;PMS7003;11789;53.482;9.862;2022-10-18T06:28:45;33.50;27.50;17.00
23240;PMS7003;11789;53.482;9.862;2022-10-18T06:31:11;34.50;28.50;16.00
23240;PMS7003;11789;53.482;9.862;2022-10-18T06:33:38;35.00;27.25;16.50
23240;PMS7003;11789;53.482;9.862;2022-10-18T06:36:04;31.75;28.75;16.50
23240;PMS7003;11789;53.482;9.862;2022-10-18T06:38:32;33.25;27.25;15.00
23240;PMS7003;11789;53.482;9.862;2022-10-18T06:40:58;29.25;23.50;15.75
23240;PMS7003;11789;53.482;9.862;2022-10-18T06:43:24;30.25;25.75;16.75
23240;PMS7003;11789;53.482;9.862;2022-10-18T06:45:50;24.75;22.75;14.25
23240;PMS7003;11789;53.482;9.862;2022-10-18T06:48:16;22.50;20.50;7.75
23240;PMS7003;11789;53.482;9.862;2022-10-18T06:50:49;33.00;27.50;16.00
23240;PMS7003;11789;53.482;9.862;2022-10-18T06:53:29;31.00;28.25;17.50
23240;PMS7003;11789;53.482;9.862;2022-10-18T06:56:05;33.50;32.00;16.50
23240;PMS7003;11789;53.482;9.862;2022-10-18T06:58:37;35.25;31.00;15.50
23240;PMS7003;11789;53.482;9.862;2022-10-18T07:01:07;30.75;30.75;17.25
23240;PMS7003;11789;53.482;9.862;2022-10-18T07:03:33;31.25;27.50;15.75
23240;PMS7003;11789;53.482;9.862;2022-10-18T07:06:00;26.50;26.25;15.50
23240;PMS7003;11789;53.482;9.862;2022-10-18T07:08:27;25.75;23.75;14.00
23240;PMS7003;11789;53.482;9.862;2022-10-18T07:10:53;27.25;26.25;14.75
23240;PMS7003;11789;53.482;9.862;2022-10-18T07:13:19;28.00;27.50;16.75
23240;PMS7003;11789;53.482;9.862;2022-10-18T07:15:45;32.00;26.75;16.00
23240;PMS7003;11789;53.482;9.862;2022-10-18T07:18:11;30.25;26.00;15.00
23240;PMS7003;11789;53.482;9.862;2022-10-18T07:20:36;26.25;24.25;15.75
23240;PMS7003;11789;53.482;9.862;2022-10-18T07:23:01;33.50;28.25;16.75
23240;PMS7003;11789;53.482;9.862;2022-10-18T07:25:27;33.50;29.50;15.50
23240;PMS7003;11789;53.482;9.862;2022-10-18T07:27:53;25.00;23.75;15.25
23240;PMS7003;11789;53.482;9.862;2022-10-18T07:30:19;30.25;25.00;15.25
23240;PMS7003;11789;53.482;9.862;2022-10-18T07:32:44;24.50;23.50;13.75
23240;PMS7003;11789;53.482;9.862;2022-10-18T07:35:10;22.50;22.50;14.50
23240;PMS7003;11789;53.482;9.862;2022-10-18T07:37:35;26.00;25.75;15.75
23240;PMS7003;11789;53.482;9.862;2022-10-18T07:40:01;25.00;25.00;13.50
23240;PMS7003;11789;53.482;9.862;2022-10-18T07:42:26;32.00;25.00;13.00
23240;PMS7003;11789;53.482;9.862;2022-10-18T07:44:51;24.75;21.25;13.75
23240;PMS7003;11789;53.482;9.862;2022-10-18T07:47:17;33.75;31.25;18.25
23240;PMS7003;11789;53.482;9.862;2022-10-18T07:49:42;30.00;29.25;15.50
23240;PMS7003;11789;53.482;9.862;2022-10-18T07:52:08;28.75;26.25;16.00
23240;PMS7003;11789;53.482;9.862;2022-10-18T07:54:34;26.00;25.25;16.75
23240;PMS7003;11789;53.482;9.862;2022-10-18T07:57:00;28.25;20.25;12.00
23240;PMS7003;11789;53.482;9.862;2022-10-18T07:59:25;26.00;23.50;14.50
23240;PMS7003;11789;53.482;9.862;2022-10-18T08:01:51;24.25;20.75;14.75
23240;PMS7003;11789;53.482;9.862;2022-10-18T08:04:16;25.00;25.00;14.75
23240;PMS7003;11789;53.482;9.862;2022-10-18T08:06:41;26.00;24.50;14.00
23240;PMS7003;11789;53.482;9.862;2022-10-18T08:09:07;26.50;25.00;14.50
23240;PMS7003;11789;53.482;9.862;2022-10-18T08:11:33;22.00;18.25;12.00
23240;PMS7003;11789;53.482;9.862;2022-10-18T08:13:58;19.75;18.75;11.00
23240;PMS7003;11789;53.482;9.862;2022-10-18T08:16:25;23.75;23.25;11.00
23240;PMS7003;11789;53.482;9.862;2022-10-18T08:18:52;20.50;20.50;13.00
23240;PMS7003;11789;53.482;9.862;2022-10-18T08:21:19;26.50;24.00;14.75
23240;PMS7003;11789;53.482;9.862;2022-10-18T08:23:45;22.75;19.75;12.25
23240;PMS7003;11789;53.482;9.862;2022-10-18T08:26:13;29.50;22.00;13.00
23240;PMS7003;11789;53.482;9.862;2022-10-18T08:28:40;31.25;27.50;16.00
23240;PMS7003;11789;53.482;9.862;2022-10-18T08:31:08;26.25;24.25;12.75
23240;PMS7003;11789;53.482;9.862;2022-10-18T08:33:39;23.75;22.50;13.50
23240;PMS7003;11789;53.482;9.862;2022-10-18T08:36:06;23.75;21.00;11.50
23240;PMS7003;11789;53.482;9.862;2022-10-18T08:38:33;26.00;21.00;14.00
23240;PMS7003;11789;53.482;9.862;2022-10-18T08:41:15;23.75;23.75;14.25
23240;PMS7003;11789;53.482;9.862;2022-10-18T08:46:32;24.00;21.75;12.50
23240;PMS7003;11789;53.482;9.862;2022-10-18T08:49:00;20.50;20.50;12.25
23240;PMS7003;11789;53.482;9.862;2022-10-18T08:54:14;28.50;24.25;14.50
23240;PMS7003;11789;53.482;9.862;2022-10-18T08:56:53;18.50;17.00;10.25
23240;PMS7003;11789;53.482;9.862;2022-10-18T08:59:23;18.50;18.25;12.00
23240;PMS7003;11789;53.482;9.862;2022-10-18T09:02:04;23.00;19.00;11.00
23240;PMS7003;11789;53.482;9.862;2022-10-18T09:04:44;23.00;18.75;12.25
23240;PMS7003;11789;53.482;9.862;2022-10-18T09:21:57;25.00;22.00;12.75
23240;PMS7003;11789;53.482;9.862;2022-10-18T09:24:45;26.00;21.25;13.25
23240;PMS7003;11789;53.482;9.862;2022-10-18T09:27:19;26.50;21.50;13.75
23240;PMS7003;11789;53.482;9.862;2022-10-18T09:30:09;22.50;18.75;11.00
23240;PMS7003;11789;53.482;9.862;2022-10-18T09:33:05;24.25;22.00;12.50
23240;PMS7003;11789;53.482;9.862;2022-10-18T09:36:01;23.75;19.25;11.00
23240;PMS7003;11789;53.482;9.862;2022-10-18T09:39:12;19.00;19.00;10.75
23240;PMS7003;11789;53.482;9.862;2022-10-18T09:41:23;17.50;16.00;10.00
23240;PMS7003;11789;53.482;9.862;2022-10-18T09:43:54;20.00;18.50;10.75
23240;PMS7003;11789;53.482;9.862;2022-10-18T09:46:29;18.25;18.25;11.50
23240;PMS7003;11789;53.482;9.862;2022-10-18T09:49:00;20.75;18.50;11.75
23240;PMS7003;11789;53.482;9.862;2022-10-18T09:51:32;22.00;19.25;13.00
23240;PMS7003;11789;53.482;9.862;2022-10-18T09:54:07;22.00;17.50;11.50
23240;PMS7003;11789;53.482;9.862;2022-10-18T09:56:42;21.75;17.50;12.25
23240;PMS7003;11789;53.482;9.862;2022-10-18T10:01:59;18.75;17.00;9.75
23240;PMS7003;11789;53.482;9.862;2022-10-18T10:04:25;15.75;15.00;10.00
23240;PMS7003;11789;53.482;9.862;2022-10-18T10:06:52;16.00;15.00;11.00
23240;PMS7003;11789;53.482;9.862;2022-10-18T10:10:21;22.50;17.25;10.50
23240;PMS7003;11789;53.482;9.862;2022-10-18T10:15:18;17.25;16.00;10.00
23240;PMS7003;11789;53.482;9.862;2022-10-18T10:17:55;16.50;15.25;9.75
23240;PMS7003;11789;53.482;9.862;2022-10-18T10:20:41;19.25;13.00;9.00
23240;PMS7003;11789;53.482;9.862;2022-10-18T10:23:14;20.00;18.25;9.00
23240;PMS7003;11789;53.482;9.862;2022-10-18T10:25:48;16.75;13.00;8.75
23240;PMS7003;11789;53.482;9.862;2022-10-18T10:28:19;19.00;19.00;11.50
23240;PMS7003;11789;53.482;9.862;2022-10-18T10:30:48;18.00;16.25;10.75
23240;PMS7003;11789;53.482;9.862;2022-10-18T10:33:31;18.75;16.25;9.75
23240;PMS7003;11789;53.482;9.862;2022-10-18T10:35:59;16.50;15.00;9.25
23240;PMS7003;11789;53.482;9.862;2022-10-18T10:38:26;14.00;12.75;8.25
23240;PMS7003;11789;53.482;9.862;2022-10-18T10:40:53;18.00;18.00;11.50
23240;PMS7003;11789;53.482;9.862;2022-10-18T10:43:31;18.50;15.75;10.25
23240;PMS7003;11789;53.482;9.862;2022-10-18T10:46:02;22.00;15.00;9.75
23240;PMS7003;11789;53.482;9.862;2022-10-18T10:48:48;19.00;15.25;11.00
23240;PMS7003;11789;53.482;9.862;2022-10-18T10:51:17;18.50;16.75;9.50
23240;PMS7003;11789;53.482;9.862;2022-10-18T10:54:10;17.50;13.00;9.25
23240;PMS7003;11789;53.482;9.862;2022-10-18T10:59:29;20.00;16.75;9.25
23240;PMS7003;11789;53.482;9.862;2022-10-18T11:04:44;14.75;14.75;10.00
23240;PMS7003;11789;53.482;9.862;2022-10-18T11:07:19;14.00;11.50;7.25
23240;PMS7003;11789;53.482;9.862;2022-10-18T11:09:53;11.75;11.00;6.50
23240;PMS7003;11789;53.482;9.862;2022-10-18T11:12:40;14.00;12.00;8.50
23240;PMS7003;11789;53.482;9.862;2022-10-18T11:20:15;18.50;16.75;9.00
23240;PMS7003;11789;53.482;9.862;2022-10-18T11:25:22;11.75;10.75;6.00
23240;PMS7003;11789;53.482;9.862;2022-10-18T11:30:36;10.25;7.25;4.00
23240;PMS7003;11789;53.482;9.862;2022-10-18T11:36:00;10.00;6.50;4.75
23240;PMS7003;11789;53.482;9.862;2022-10-18T11:38:39;11.00;6.00;4.25
23240;PMS7003;11789;53.482;9.862;2022-10-18T11:41:18;7.75;6.50;4.00
23240;PMS7003;11789;53.482;9.862;2022-10-18T11:52:08;7.25;6.50;3.75
23240;PMS7003;11789;53.482;9.862;2022-10-18T11:54:51;13.00;8.75;5.25
23240;PMS7003;11789;53.482;9.862;2022-10-18T12:05:05;10.00;7.25;4.00
23240;PMS7003;11789;53.482;9.862;2022-10-18T12:07:40;7.00;6.00;4.00
23240;PMS7003;11789;53.482;9.862;2022-10-18T12:10:14;7.00;7.00;5.00
23240;PMS7003;11789;53.482;9.862;2022-10-18T12:12:49;5.00;5.00;3.00
23240;PMS7003;11789;53.482;9.862;2022-10-18T12:15:26;8.50;6.00;4.00
23240;PMS7003;11789;53.482;9.862;2022-10-18T12:17:55;8.00;5.00;3.50
23240;PMS7003;11789;53.482;9.862;2022-10-18T12:20:32;9.50;7.50;5.00
23240;PMS7003;11789;53.482;9.862;2022-10-18T12:23:15;7.25;5.00;3.50
23240;PMS7003;11789;53.482;9.862;2022-10-18T12:25:50;6.00;6.00;4.00
23240;PMS7003;11789;53.482;9.862;2022-10-18T12:30:59;9.75;8.00;5.00
23240;PMS7003;11789;53.482;9.862;2022-10-18T12:33:30;8.00;6.25;4.25
23240;PMS7003;11789;53.482;9.862;2022-10-18T12:39:05;4.50;4.50;3.25
23240;PMS7003;11789;53.482;9.862;2022-10-18T12:41:35;7.75;3.75;3.00
23240;PMS7003;11789;53.482;9.862;2022-10-18T12:44:17;8.50;5.00;4.00
23240;PMS7003;11789;53.482;9.862;2022-10-18T12:46:44;4.25;4.25;3.00
23240;PMS7003;11789;53.482;9.862;2022-10-18T12:49:28;5.50;5.50;4.00
23240;PMS7003;11789;53.482;9.862;2022-10-18T12:51:57;6.00;4.25;3.50
23240;PMS7003;11789;53.482;9.862;2022-10-18T12:54:29;5.25;4.00;3.00
23240;PMS7003;11789;53.482;9.862;2022-10-18T12:57:04;5.25;4.00;3.25
23240;PMS7003;11789;53.482;9.862;2022-10-18T12:59:42;6.75;6.75;4.75
23240;PMS7003;11789;53.482;9.862;2022-10-18T13:02:17;6.00;4.25;4.00
23240;PMS7003;11789;53.482;9.862;2022-10-18T13:04:45;7.00;5.50;5.00
23240;PMS7003;11789;53.482;9.862;2022-10-18T13:15:18;6.75;5.75;4.00
23240;PMS7003;11789;53.482;9.862;2022-10-18T13:18:09;3.00;3.00;3.00
23240;PMS7003;11789;53.482;9.862;2022-10-18T13:20:53;3.00;3.00;2.00
23240;PMS7003;11789;53.482;9.862;2022-10-18T13:31:27;2.00;2.00;2.00
23240;PMS7003;11789;53.482;9.862;2022-10-18T13:34:16;3.00;3.00;2.00
23240;PMS7003;11789;53.482;9.862;2022-10-18T13:36:55;4.75;2.75;1.50
23240;PMS7003;11789;53.482;9.862;2022-10-18T13:39:23;1.25;1.25;1.00
23240;PMS7003;11789;53.482;9.862;2022-10-18T13:44:23;5.25;3.00;1.50
23240;PMS7003;11789;53.482;9.862;2022-10-18T14:06:35;1.00;1.00;1.00
23240;PMS7003;11789;53.482;9.862;2022-10-18T14:09:07;5.00;2.00;1.00
23240;PMS7003;11789;53.482;9.862;2022-10-18T14:14:35;2.00;2.00;1.00
23240;PMS7003;11789;53.482;9.862;2022-10-18T14:19:37;2.00;1.00;0.50
23240;PMS7003;11789;53.482;9.862;2022-10-18T14:24:34;3.75;1.00;1.00
23240;PMS7003;11789;53.482;9.862;2022-10-18T14:27:11;1.00;1.00;0.25
23240;PMS7003;11789;53.482;9.862;2022-10-18T14:29:45;2.00;1.50;1.00
23240;PMS7003;11789;53.482;9.862;2022-10-18T14:32:28;1.00;1.00;1.00
23240;PMS7003;11789;53.482;9.862;2022-10-18T14:34:56;2.00;2.00;1.50
23240;PMS7003;11789;53.482;9.862;2022-10-18T14:37:26;1.25;1.25;0.25
23240;PMS7003;11789;53.482;9.862;2022-10-18T14:39:54;1.00;1.00;0.50
23240;PMS7003;11789;53.482;9.862;2022-10-18T14:42:20;4.25;2.00;1.00
23240;PMS7003;11789;53.482;9.862;2022-10-18T14:44:47;8.75;4.00;3.00
23240;PMS7003;11789;53.482;9.862;2022-10-18T14:47:19;4.50;4.00;2.00
23240;PMS7003;11789;53.482;9.862;2022-10-18T14:49:47;6.50;1.50;1.00
23240;PMS7003;11789;53.482;9.862;2022-10-18T14:52:14;4.50;4.00;2.00
23240;PMS7003;11789;53.482;9.862;2022-10-18T14:54:42;2.25;1.50;1.00
23240;PMS7003;11789;53.482;9.862;2022-10-18T14:57:16;1.00;1.00;1.00
23240;PMS7003;11789;53.482;9.862;2022-10-18T14:59:47;1.00;1.00;0.00
23240;PMS7003;11789;53.482;9.862;2022-10-18T15:02:21;1.75;1.75;1.00
23240;PMS7003;11789;53.482;9.862;2022-10-18T15:04:58;1.75;1.00;1.00
23240;PMS7003;11789;53.482;9.862;2022-10-18T15:07:30;1.75;1.75;1.00
23240;PMS7003;11789;53.482;9.862;2022-10-18T15:09:57;1.00;1.00;0.75
23240;PMS7003;11789;53.482;9.862;2022-10-18T15:12:24;3.75;1.00;1.00
23240;PMS7003;11789;53.482;9.862;2022-10-18T15:14:52;2.00;2.00;1.00
23240;PMS7003;11789;53.482;9.862;2022-10-18T15:19:53;4.25;2.00;1.00
23240;PMS7003;11789;53.482;9.862;2022-10-18T15:22:24;2.50;1.00;1.00
23240;PMS7003;11789;53.482;9.862;2022-10-18T15:27:30;3.25;1.00;0.00
23240;PMS7003;11789;53.482;9.862;2022-10-18T15:30:04;3.00;2.00;1.00
23240;PMS7003;11789;53.482;9.862;2022-10-18T15:32:45;1.00;1.00;1.00
23240;PMS7003;11789;53.482;9.862;2022-10-18T15:35:17;1.00;1.00;1.00
23240;PMS7003;11789;53.482;9.862;2022-10-18T15:37:46;1.25;1.00;0.00
23240;PMS7003;11789;53.482;9.862;2022-10-18T15:42:51;2.50;1.00;1.00
23240;PMS7003;11789;53.482;9.862;2022-10-18T15:48:23;1.00;1.00;1.00
23240;PMS7003;11789;53.482;9.862;2022-10-18T15:51:02;0.00;0.00;0.00
23240;PMS7003;11789;53.482;9.862;2022-10-18T15:56:37;3.75;2.00;1.00
23240;PMS7003;11789;53.482;9.862;2022-10-18T15:58:54;1.50;0.25;0.00
23240;PMS7003;11789;53.482;9.862;2022-10-18T16:01:32;2.75;2.75;1.00
23240;PMS7003;11789;53.482;9.862;2022-10-18T16:04:06;1.25;1.25;1.00
23240;PMS7003;11789;53.482;9.862;2022-10-18T16:06:38;0.25;0.25;0.25
23240;PMS7003;11789;53.482;9.862;2022-10-18T16:09:04;1.00;1.00;1.00
23240;PMS7003;11789;53.482;9.862;2022-10-18T16:11:29;1.50;1.50;1.00
23240;PMS7003;11789;53.482;9.862;2022-10-18T16:13:55;2.00;1.00;1.00
23240;PMS7003;11789;53.482;9.862;2022-10-18T16:16:22;2.75;1.00;1.00
23240;PMS7003;11789;53.482;9.862;2022-10-18T16:18:49;1.25;1.25;1.00
23240;PMS7003;11789;53.482;9.862;2022-10-18T16:21:37;2.00;1.00;1.00
23240;PMS7003;11789;53.482;9.862;2022-10-18T16:24:02;0.75;0.75;0.75
23240;PMS7003;11789;53.482;9.862;2022-10-18T16:26:29;4.50;2.00;1.00
23240;PMS7003;11789;53.482;9.862;2022-10-18T16:28:56;1.00;1.00;1.00
23240;PMS7003;11789;53.482;9.862;2022-10-18T16:31:23;3.00;2.00;1.00
23240;PMS7003;11789;53.482;9.862;2022-10-18T16:33:51;2.00;2.00;2.00
23240;PMS7003;11789;53.482;9.862;2022-10-18T16:36:19;4.25;1.25;1.00
23240;PMS7003;11789;53.482;9.862;2022-10-18T16:38:49;0.75;0.75;0.75
23240;PMS7003;11789;53.482;9.862;2022-10-18T16:41:15;2.50;1.00;1.00